sensor_id;sensor_type;location;lat;lon;timestamp;P1;durP1;ratioP1;P2;durP2;ratioP2
36441;SDS011;64346;50.820;16.274;2023-05-07T00:01:48;19.60;;;12.68;;
36441;SDS011;64346;50.820;16.274;2023-05-07T00:04:15;18.70;;;13.20;;
36441;SDS011;64346;50.820;16.274;2023-05-07T00:06:42;20.90;;;12.90;;
36441;SDS011;64346;50.820;16.274;2023-05-07T00:09:10;18.58;;;11.90;;
36441;SDS011;64346;50.820;16.274;2023-05-07T00:11:39;23.45;;;12.85;;
36441;SDS011;64346;50.820;16.274;2023-05-07T00:14:06;38.28;;;11.60;;
36441;SDS011;64346;50.820;16.274;2023-05-07T00:16:34;15.43;;;10.88;;
36441;SDS011;64346;50.820;16.274;2023-05-07T00:19:04;14.68;;;10.60;;
36441;SDS011;64346;50.820;16.274;2023-05-07T00:21:31;13.98;;;9.93;;
36441;SDS011;64346;50.820;16.274;2023-05-07T00:23:58;16.63;;;10.05;;
36441;SDS011;64346;50.820;16.274;2023-05-07T00:26:25;17.17;;;10.60;;
36441;SDS011;64346;50.820;16.274;2023-05-07T00:28:55;14.10;;;10.20;;
36441;SDS011;64346;50.820;16.274;2023-05-07T00:31:22;28.95;;;10.30;;
36441;SDS011;64346;50.820;16.274;2023-05-07T00:33:52;21.73;;;11.23;;
36441;SDS011;64346;50.820;16.274;2023-05-07T00:36:19;18.83;;;11.73;;
36441;SDS011;64346;50.820;16.274;2023-05-07T00:38:46;17.13;;;10.95;;
36441;SDS011;64346;50.820;16.274;2023-05-07T00:41:16;15.45;;;10.73;;
36441;SDS011;64346;50.820;16.274;2023-05-07T00:43:43;15.63;;;10.27;;
36441;SDS011;64346;50.820;16.274;2023-05-07T00:46:10;20.13;;;9.90;;
36441;SDS011;64346;50.820;16.274;2023-05-07T00:48:38;17.83;;;11.85;;
36441;SDS011;64346;50.820;16.274;2023-05-07T00:51:05;18.27;;;13.20;;
36441;SDS011;64346;50.820;16.274;2023-05-07T00:53:33;16.33;;;9.15;;
36441;SDS011;64346;50.820;16.274;2023-05-07T00:56:01;13.88;;;8.85;;
36441;SDS011;64346;50.820;16.274;2023-05-07T00:58:28;13.32;;;7.70;;
36441;SDS011;64346;50.820;16.274;2023-05-07T01:00:56;13.63;;;8.25;;
36441;SDS011;64346;50.820;16.274;2023-05-07T01:03:26;14.68;;;8.38;;
36441;SDS011;64346;50.820;16.274;2023-05-07T01:05:53;12.80;;;7.40;;
36441;SDS011;64346;50.820;16.274;2023-05-07T01:08:25;12.93;;;7.88;;
36441;SDS011;64346;50.820;16.274;2023-05-07T01:10:55;14.20;;;8.68;;
36441;SDS011;64346;50.820;16.274;2023-05-07T01:13:24;12.27;;;8.18;;
36441;SDS011;64346;50.820;16.274;2023-05-07T01:15:53;11.88;;;7.22;;
36441;SDS011;64346;50.820;16.274;2023-05-07T01:18:21;16.70;;;7.72;;
36441;SDS011;64346;50.820;16.274;2023-05-07T01:20:48;12.82;;;8.10;;
36441;SDS011;64346;50.820;16.274;2023-05-07T01:23:21;17.10;;;8.40;;
36441;SDS011;64346;50.820;16.274;2023-05-07T01:25:52;15.10;;;8.63;;
36441;SDS011;64346;50.820;16.274;2023-05-07T01:28:20;13.95;;;8.98;;
36441;SDS011;64346;50.820;16.274;2023-05-07T01:30:51;16.85;;;9.05;;
36441;SDS011;64346;50.820;16.274;2023-05-07T01:33:21;16.08;;;9.45;;
36441;SDS011;64346;50.820;16.274;2023-05-07T01:35:53;20.55;;;9.60;;
36441;SDS011;64346;50.820;16.274;2023-05-07T01:38:21;17.33;;;8.70;;
36441;SDS011;64346;50.820;16.274;2023-05-07T01:40:49;20.35;;;8.43;;
36441;SDS011;64346;50.820;16.274;2023-05-07T01:43:17;15.45;;;8.98;;
36441;SDS011;64346;50.820;16.274;2023-05-07T01:45:45;14.25;;;8.95;;
36441;SDS011;64346;50.820;16.274;2023-05-07T01:48:13;15.07;;;9.57;;
36441;SDS011;64346;50.820;16.274;2023-05-07T01:50:43;14.25;;;8.60;;
36441;SDS011;64346;50.820;16.274;2023-05-07T01:53:13;13.13;;;8.15;;
36441;SDS011;64346;50.820;16.274;2023-05-07T01:55:41;12.77;;;7.47;;
36441;SDS011;64346;50.820;16.274;2023-05-07T01:58:10;12.18;;;7.20;;
36441;SDS011;64346;50.820;16.274;2023-05-07T02:00:39;10.77;;;6.30;;
36441;SDS011;64346;50.820;16.274;2023-05-07T02:03:07;12.20;;;6.97;;
36441;SDS011;64346;50.820;16.274;2023-05-07T02:05:34;13.32;;;6.68;;
36441;SDS011;64346;50.820;16.274;2023-05-07T02:08:02;15.32;;;7.47;;
36441;SDS011;64346;50.820;16.274;2023-05-07T02:10:31;13.90;;;7.20;;
36441;SDS011;64346;50.820;16.274;2023-05-07T02:12:58;11.70;;;6.85;;
36441;SDS011;64346;50.820;16.274;2023-05-07T02:15:28;12.07;;;7.32;;
36441;SDS011;64346;50.820;16.274;2023-05-07T02:18:13;12.77;;;7.70;;
36441;SDS011;64346;50.820;16.274;2023-05-07T02:20:40;12.38;;;7.40;;
36441;SDS011;64346;50.820;16.274;2023-05-07T02:23:08;13.15;;;8.05;;
36441;SDS011;64346;50.820;16.274;2023-05-07T02:25:37;15.68;;;9.25;;
36441;SDS011;64346;50.820;16.274;2023-05-07T02:28:05;14.57;;;9.20;;
36441;SDS011;64346;50.820;16.274;2023-05-07T02:30:32;15.23;;;9.10;;
36441;SDS011;64346;50.820;16.274;2023-05-07T02:32:59;13.35;;;8.75;;
36441;SDS011;64346;50.820;16.274;2023-05-07T02:35:27;14.82;;;8.85;;
36441;SDS011;64346;50.820;16.274;2023-05-07T02:37:54;13.13;;;8.05;;
36441;SDS011;64346;50.820;16.274;2023-05-07T02:40:21;13.43;;;8.00;;
36441;SDS011;64346;50.820;16.274;2023-05-07T02:42:51;14.70;;;7.72;;
36441;SDS011;64346;50.820;16.274;2023-05-07T02:45:18;12.27;;;7.40;;
36441;SDS011;64346;50.820;16.274;2023-05-07T02:47:46;12.65;;;7.38;;
36441;SDS011;64346;50.820;16.274;2023-05-07T02:50:13;11.32;;;6.45;;
36441;SDS011;64346;50.820;16.274;2023-05-07T02:52:42;11.50;;;6.57;;
36441;SDS011;64346;50.820;16.274;2023-05-07T02:55:12;9.57;;;6.40;;
36441;SDS011;64346;50.820;16.274;2023-05-07T02:57:39;10.20;;;6.47;;
36441;SDS011;64346;50.820;16.274;2023-05-07T03:00:09;9.85;;;5.70;;
36441;SDS011;64346;50.820;16.274;2023-05-07T03:02:38;10.70;;;5.97;;
36441;SDS011;64346;50.820;16.274;2023-05-07T03:05:08;11.75;;;7.18;;
36441;SDS011;64346;50.820;16.274;2023-05-07T03:07:36;9.35;;;5.57;;
36441;SDS011;64346;50.820;16.274;2023-05-07T03:10:04;9.90;;;5.50;;
36441;SDS011;64346;50.820;16.274;2023-05-07T03:12:34;8.45;;;4.90;;
36441;SDS011;64346;50.820;16.274;2023-05-07T03:15:03;10.30;;;6.38;;
36441;SDS011;64346;50.820;16.274;2023-05-07T03:17:31;9.85;;;5.22;;
36441;SDS011;64346;50.820;16.274;2023-05-07T03:19:58;8.80;;;4.85;;
36441;SDS011;64346;50.820;16.274;2023-05-07T03:22:27;8.32;;;5.22;;
36441;SDS011;64346;50.820;16.274;2023-05-07T03:24:57;9.38;;;5.32;;
36441;SDS011;64346;50.820;16.274;2023-05-07T03:27:24;10.48;;;6.18;;
36441;SDS011;64346;50.820;16.274;2023-05-07T03:29:51;10.45;;;6.35;;
36441;SDS011;64346;50.820;16.274;2023-05-07T03:32:21;11.68;;;7.20;;
36441;SDS011;64346;50.820;16.274;2023-05-07T03:34:48;11.73;;;7.47;;
36441;SDS011;64346;50.820;16.274;2023-05-07T03:37:15;11.63;;;7.50;;
36441;SDS011;64346;50.820;16.274;2023-05-07T03:39:45;11.43;;;7.72;;
36441;SDS011;64346;50.820;16.274;2023-05-07T03:42:14;10.77;;;6.75;;
36441;SDS011;64346;50.820;16.274;2023-05-07T03:44:42;11.43;;;7.82;;
36441;SDS011;64346;50.820;16.274;2023-05-07T03:47:09;11.05;;;7.60;;
36441;SDS011;64346;50.820;16.274;2023-05-07T03:49:36;10.18;;;6.78;;
36441;SDS011;64346;50.820;16.274;2023-05-07T03:52:03;9.75;;;6.28;;
36441;SDS011;64346;50.820;16.274;2023-05-07T03:54:31;10.60;;;7.35;;
36441;SDS011;64346;50.820;16.274;2023-05-07T03:56:58;10.93;;;7.30;;
36441;SDS011;64346;50.820;16.274;2023-05-07T03:59:28;11.48;;;7.28;;
36441;SDS011;64346;50.820;16.274;2023-05-07T04:01:55;11.30;;;7.03;;
36441;SDS011;64346;50.820;16.274;2023-05-07T04:04:22;11.52;;;7.50;;
36441;SDS011;64346;50.820;16.274;2023-05-07T04:06:52;10.60;;;7.30;;
36441;SDS011;64346;50.820;16.274;2023-05-07T04:09:19;11.18;;;6.95;;
36441;SDS011;64346;50.820;16.274;2023-05-07T04:11:46;11.32;;;7.35;;
36441;SDS011;64346;50.820;16.274;2023-05-07T04:14:14;13.02;;;8.90;;
36441;SDS011;64346;50.820;16.274;2023-05-07T04:16:41;14.07;;;8.50;;
36441;SDS011;64346;50.820;16.274;2023-05-07T04:19:08;13.65;;;9.27;;
36441;SDS011;64346;50.820;16.274;2023-05-07T04:21:38;17.38;;;10.50;;
36441;SDS011;64346;50.820;16.274;2023-05-07T04:24:05;17.15;;;11.23;;
36441;SDS011;64346;50.820;16.274;2023-05-07T04:26:32;16.63;;;10.52;;
36441;SDS011;64346;50.820;16.274;2023-05-07T04:29:00;18.02;;;11.05;;
36441;SDS011;64346;50.820;16.274;2023-05-07T04:31:27;16.55;;;11.80;;
36441;SDS011;64346;50.820;16.274;2023-05-07T04:33:55;17.88;;;10.80;;
36441;SDS011;64346;50.820;16.274;2023-05-07T04:36:24;14.57;;;10.57;;
36441;SDS011;64346;50.820;16.274;2023-05-07T04:38:52;14.70;;;10.73;;
36441;SDS011;64346;50.820;16.274;2023-05-07T04:41:19;14.90;;;10.88;;
36441;SDS011;64346;50.820;16.274;2023-05-07T04:43:47;18.50;;;11.50;;
36441;SDS011;64346;50.820;16.274;2023-05-07T04:46:14;17.30;;;10.95;;
36441;SDS011;64346;50.820;16.274;2023-05-07T04:48:43;15.55;;;10.98;;
36441;SDS011;64346;50.820;16.274;2023-05-07T04:51:13;15.73;;;10.30;;
36441;SDS011;64346;50.820;16.274;2023-05-07T04:53:40;14.65;;;9.77;;
36441;SDS011;64346;50.820;16.274;2023-05-07T04:56:07;16.60;;;10.65;;
36441;SDS011;64346;50.820;16.274;2023-05-07T04:58:35;17.95;;;10.90;;
36441;SDS011;64346;50.820;16.274;2023-05-07T05:01:05;25.73;;;11.38;;
36441;SDS011;64346;50.820;16.274;2023-05-07T05:03:34;16.05;;;10.82;;
36441;SDS011;64346;50.820;16.274;2023-05-07T05:06:06;16.98;;;11.43;;
36441;SDS011;64346;50.820;16.274;2023-05-07T05:08:36;16.42;;;10.70;;
36441;SDS011;64346;50.820;16.274;2023-05-07T05:11:04;17.92;;;11.13;;
36441;SDS011;64346;50.820;16.274;2023-05-07T05:13:33;17.50;;;10.80;;
36441;SDS011;64346;50.820;16.274;2023-05-07T05:16:00;23.90;;;11.68;;
36441;SDS011;64346;50.820;16.274;2023-05-07T05:18:28;18.27;;;12.93;;
36441;SDS011;64346;50.820;16.274;2023-05-07T05:20:55;18.63;;;12.45;;
36441;SDS011;64346;50.820;16.274;2023-05-07T05:23:22;18.73;;;11.27;;
36441;SDS011;64346;50.820;16.274;2023-05-07T05:25:49;15.32;;;10.32;;
36441;SDS011;64346;50.820;16.274;2023-05-07T05:28:22;13.80;;;9.20;;
36441;SDS011;64346;50.820;16.274;2023-05-07T05:30:49;16.15;;;9.88;;
36441;SDS011;64346;50.820;16.274;2023-05-07T05:33:21;14.57;;;9.85;;
36441;SDS011;64346;50.820;16.274;2023-05-07T05:35:50;15.65;;;10.10;;
36441;SDS011;64346;50.820;16.274;2023-05-07T05:38:17;14.15;;;9.52;;
36441;SDS011;64346;50.820;16.274;2023-05-07T05:40:47;16.30;;;10.88;;
36441;SDS011;64346;50.820;16.274;2023-05-07T05:43:15;16.35;;;10.73;;
36441;SDS011;64346;50.820;16.274;2023-05-07T05:45:42;17.13;;;11.82;;
36441;SDS011;64346;50.820;16.274;2023-05-07T05:48:09;15.90;;;10.93;;
36441;SDS011;64346;50.820;16.274;2023-05-07T05:50:36;16.85;;;11.65;;
36441;SDS011;64346;50.820;16.274;2023-05-07T05:53:06;15.65;;;10.75;;
36441;SDS011;64346;50.820;16.274;2023-05-07T05:55:33;15.75;;;10.98;;
36441;SDS011;64346;50.820;16.274;2023-05-07T05:58:01;21.95;;;13.10;;
36441;SDS011;64346;50.820;16.274;2023-05-07T06:00:31;17.88;;;12.52;;
36441;SDS011;64346;50.820;16.274;2023-05-07T06:03:01;18.40;;;13.48;;
36441;SDS011;64346;50.820;16.274;2023-05-07T06:05:28;21.13;;;15.05;;
36441;SDS011;64346;50.820;16.274;2023-05-07T06:07:56;24.77;;;16.38;;
36441;SDS011;64346;50.820;16.274;2023-05-07T06:10:25;26.65;;;17.58;;
36441;SDS011;64346;50.820;16.274;2023-05-07T06:12:55;25.58;;;16.40;;
36441;SDS011;64346;50.820;16.274;2023-05-07T06:15:22;25.20;;;15.68;;
36441;SDS011;64346;50.820;16.274;2023-05-07T06:17:52;21.83;;;13.68;;
36441;SDS011;64346;50.820;16.274;2023-05-07T06:20:19;18.00;;;12.43;;
36441;SDS011;64346;50.820;16.274;2023-05-07T06:22:47;18.42;;;12.75;;
36441;SDS011;64346;50.820;16.274;2023-05-07T06:25:16;20.92;;;13.63;;
36441;SDS011;64346;50.820;16.274;2023-05-07T06:27:44;24.65;;;14.35;;
36441;SDS011;64346;50.820;16.274;2023-05-07T06:30:11;18.95;;;13.90;;
36441;SDS011;64346;50.820;16.274;2023-05-07T06:32:41;21.45;;;14.77;;
36441;SDS011;64346;50.820;16.274;2023-05-07T06:35:08;22.70;;;14.85;;
36441;SDS011;64346;50.820;16.274;2023-05-07T06:37:38;20.75;;;13.70;;
36441;SDS011;64346;50.820;16.274;2023-05-07T06:40:08;20.80;;;13.63;;
36441;SDS011;64346;50.820;16.274;2023-05-07T06:42:36;19.92;;;14.77;;
36441;SDS011;64346;50.820;16.274;2023-05-07T06:45:03;21.58;;;14.15;;
36441;SDS011;64346;50.820;16.274;2023-05-07T06:47:31;20.20;;;13.20;;
36441;SDS011;64346;50.820;16.274;2023-05-07T06:49:58;17.10;;;11.77;;
36441;SDS011;64346;50.820;16.274;2023-05-07T06:52:28;17.83;;;11.32;;
36441;SDS011;64346;50.820;16.274;2023-05-07T06:54:55;17.70;;;12.05;;
36441;SDS011;64346;50.820;16.274;2023-05-07T06:57:25;18.13;;;11.60;;
36441;SDS011;64346;50.820;16.274;2023-05-07T06:59:52;16.00;;;11.10;;
36441;SDS011;64346;50.820;16.274;2023-05-07T07:02:19;18.10;;;13.15;;
36441;SDS011;64346;50.820;16.274;2023-05-07T07:04:48;21.02;;;13.60;;
36441;SDS011;64346;50.820;16.274;2023-05-07T07:07:18;19.27;;;14.00;;
36441;SDS011;64346;50.820;16.274;2023-05-07T07:09:45;18.77;;;13.50;;
36441;SDS011;64346;50.820;16.274;2023-05-07T07:12:12;16.17;;;12.07;;
36441;SDS011;64346;50.820;16.274;2023-05-07T07:14:39;19.90;;;13.88;;
36441;SDS011;64346;50.820;16.274;2023-05-07T07:17:07;17.48;;;12.95;;
36441;SDS011;64346;50.820;16.274;2023-05-07T07:19:34;20.73;;;14.73;;
36441;SDS011;64346;50.820;16.274;2023-05-07T07:22:02;22.90;;;15.45;;
36441;SDS011;64346;50.820;16.274;2023-05-07T07:24:31;28.55;;;18.35;;
36441;SDS011;64346;50.820;16.274;2023-05-07T07:27:01;25.60;;;17.27;;
36441;SDS011;64346;50.820;16.274;2023-05-07T07:29:28;24.40;;;17.88;;
36441;SDS011;64346;50.820;16.274;2023-05-07T07:31:56;24.42;;;17.73;;
36441;SDS011;64346;50.820;16.274;2023-05-07T07:34:23;23.80;;;17.55;;
36441;SDS011;64346;50.820;16.274;2023-05-07T07:36:50;27.63;;;16.65;;
36441;SDS011;64346;50.820;16.274;2023-05-07T07:39:17;24.20;;;17.58;;
36441;SDS011;64346;50.820;16.274;2023-05-07T07:41:45;23.25;;;17.30;;
36441;SDS011;64346;50.820;16.274;2023-05-07T07:44:14;21.60;;;15.82;;
36441;SDS011;64346;50.820;16.274;2023-05-07T07:46:47;20.45;;;14.40;;
36441;SDS011;64346;50.820;16.274;2023-05-07T07:49:14;18.65;;;13.90;;
36441;SDS011;64346;50.820;16.274;2023-05-07T07:51:41;17.88;;;13.63;;
36441;SDS011;64346;50.820;16.274;2023-05-07T07:54:11;17.58;;;13.82;;
36441;SDS011;64346;50.820;16.274;2023-05-07T07:56:38;17.85;;;11.98;;
36441;SDS011;64346;50.820;16.274;2023-05-07T07:59:05;13.35;;;9.90;;
36441;SDS011;64346;50.820;16.274;2023-05-07T08:01:35;17.38;;;12.57;;
36441;SDS011;64346;50.820;16.274;2023-05-07T08:04:02;12.82;;;9.13;;
36441;SDS011;64346;50.820;16.274;2023-05-07T08:06:30;12.88;;;9.13;;
36441;SDS011;64346;50.820;16.274;2023-05-07T08:08:57;12.73;;;8.55;;
36441;SDS011;64346;50.820;16.274;2023-05-07T08:11:24;13.27;;;7.03;;
36441;SDS011;64346;50.820;16.274;2023-05-07T08:13:52;11.82;;;7.45;;
36441;SDS011;64346;50.820;16.274;2023-05-07T08:16:20;9.85;;;6.18;;
36441;SDS011;64346;50.820;16.274;2023-05-07T08:18:49;11.07;;;6.88;;
36441;SDS011;64346;50.820;16.274;2023-05-07T08:21:16;10.82;;;7.80;;
36441;SDS011;64346;50.820;16.274;2023-05-07T08:23:44;12.93;;;7.70;;
36441;SDS011;64346;50.820;16.274;2023-05-07T08:26:11;12.07;;;8.48;;
36441;SDS011;64346;50.820;16.274;2023-05-07T08:28:41;13.20;;;8.70;;
36441;SDS011;64346;50.820;16.274;2023-05-07T08:31:10;14.90;;;10.85;;
36441;SDS011;64346;50.820;16.274;2023-05-07T08:33:38;13.23;;;10.73;;
36441;SDS011;64346;50.820;16.274;2023-05-07T08:36:05;15.18;;;11.68;;
36441;SDS011;64346;50.820;16.274;2023-05-07T08:38:35;15.20;;;11.85;;
36441;SDS011;64346;50.820;16.274;2023-05-07T08:41:02;14.88;;;11.52;;
36441;SDS011;64346;50.820;16.274;2023-05-07T08:43:32;15.13;;;11.05;;
36441;SDS011;64346;50.820;16.274;2023-05-07T08:46:00;13.23;;;11.27;;
36441;SDS011;64346;50.820;16.274;2023-05-07T08:48:28;12.85;;;10.48;;
36441;SDS011;64346;50.820;16.274;2023-05-07T08:50:58;14.65;;;11.15;;
36441;SDS011;64346;50.820;16.274;2023-05-07T08:53:27;16.27;;;11.63;;
36441;SDS011;64346;50.820;16.274;2023-05-07T08:55:55;13.32;;;10.13;;
36441;SDS011;64346;50.820;16.274;2023-05-07T08:58:24;14.35;;;9.45;;
36441;SDS011;64346;50.820;16.274;2023-05-07T09:00:52;11.23;;;8.65;;
36441;SDS011;64346;50.820;16.274;2023-05-07T09:03:22;12.98;;;8.05;;
36441;SDS011;64346;50.820;16.274;2023-05-07T09:05:50;13.15;;;9.65;;
36441;SDS011;64346;50.820;16.274;2023-05-07T09:08:24;15.27;;;11.07;;
36441;SDS011;64346;50.820;16.274;2023-05-07T09:10:54;13.68;;;10.23;;
36441;SDS011;64346;50.820;16.274;2023-05-07T09:13:21;14.32;;;10.20;;
36441;SDS011;64346;50.820;16.274;2023-05-07T09:15:51;13.82;;;10.38;;
36441;SDS011;64346;50.820;16.274;2023-05-07T09:18:18;15.18;;;11.63;;
36441;SDS011;64346;50.820;16.274;2023-05-07T09:20:46;13.88;;;11.18;;
36441;SDS011;64346;50.820;16.274;2023-05-07T09:23:13;15.32;;;11.15;;
36441;SDS011;64346;50.820;16.274;2023-05-07T09:25:41;14.90;;;11.30;;
36441;SDS011;64346;50.820;16.274;2023-05-07T09:28:08;16.65;;;11.30;;
36441;SDS011;64346;50.820;16.274;2023-05-07T09:30:35;14.15;;;10.82;;
36441;SDS011;64346;50.820;16.274;2023-05-07T09:33:03;15.68;;;11.73;;
36441;SDS011;64346;50.820;16.274;2023-05-07T09:35:33;13.50;;;10.80;;
36441;SDS011;64346;50.820;16.274;2023-05-07T09:38:00;11.95;;;9.00;;
36441;SDS011;64346;50.820;16.274;2023-05-07T09:40:30;10.65;;;7.88;;
36441;SDS011;64346;50.820;16.274;2023-05-07T09:43:08;12.90;;;7.82;;
36441;SDS011;64346;50.820;16.274;2023-05-07T09:45:36;10.30;;;7.25;;
36441;SDS011;64346;50.820;16.274;2023-05-07T09:48:04;11.85;;;8.63;;
36441;SDS011;64346;50.820;16.274;2023-05-07T09:50:35;11.20;;;7.97;;
36441;SDS011;64346;50.820;16.274;2023-05-07T09:53:08;10.77;;;7.13;;
36441;SDS011;64346;50.820;16.274;2023-05-07T09:55:37;17.10;;;10.90;;
36441;SDS011;64346;50.820;16.274;2023-05-07T09:58:07;10.77;;;7.18;;
36441;SDS011;64346;50.820;16.274;2023-05-07T10:00:36;9.52;;;6.80;;
36441;SDS011;64346;50.820;16.274;2023-05-07T10:03:06;10.25;;;7.35;;
36441;SDS011;64346;50.820;16.274;2023-05-07T10:05:36;11.43;;;8.52;;
36441;SDS011;64346;50.820;16.274;2023-05-07T10:08:03;15.40;;;11.52;;
36441;SDS011;64346;50.820;16.274;2023-05-07T10:10:32;12.73;;;9.38;;
36441;SDS011;64346;50.820;16.274;2023-05-07T10:13:00;12.32;;;8.52;;
36441;SDS011;64346;50.820;16.274;2023-05-07T10:15:28;11.32;;;6.80;;
36441;SDS011;64346;50.820;16.274;2023-05-07T10:17:56;9.52;;;5.30;;
36441;SDS011;64346;50.820;16.274;2023-05-07T10:20:27;8.77;;;5.65;;
36441;SDS011;64346;50.820;16.274;2023-05-07T10:22:54;8.82;;;5.22;;
36441;SDS011;64346;50.820;16.274;2023-05-07T10:25:32;8.80;;;5.72;;
36441;SDS011;64346;50.820;16.274;2023-05-07T10:28:06;9.45;;;5.72;;
36441;SDS011;64346;50.820;16.274;2023-05-07T10:30:52;9.38;;;5.90;;
36441;SDS011;64346;50.820;16.274;2023-05-07T10:33:26;8.65;;;5.13;;
36441;SDS011;64346;50.820;16.274;2023-05-07T10:35:58;9.27;;;5.10;;
36441;SDS011;64346;50.820;16.274;2023-05-07T10:38:27;8.60;;;4.88;;
36441;SDS011;64346;50.820;16.274;2023-05-07T10:40:57;8.80;;;5.05;;
36441;SDS011;64346;50.820;16.274;2023-05-07T10:43:24;9.70;;;5.80;;
36441;SDS011;64346;50.820;16.274;2023-05-07T10:51:27;10.40;;;6.82;;
36441;SDS011;64346;50.820;16.274;2023-05-07T11:01:50;12.07;;;8.65;;
36441;SDS011;64346;50.820;16.274;2023-05-07T11:04:27;12.85;;;8.45;;
36441;SDS011;64346;50.820;16.274;2023-05-07T11:17:52;15.00;;;9.18;;
36441;SDS011;64346;50.820;16.274;2023-05-07T11:26:04;12.95;;;8.88;;
36441;SDS011;64346;50.820;16.274;2023-05-07T11:28:37;13.00;;;9.07;;
36441;SDS011;64346;50.820;16.274;2023-05-07T11:31:04;12.50;;;8.68;;
36441;SDS011;64346;50.820;16.274;2023-05-07T11:33:35;13.38;;;8.55;;
36441;SDS011;64346;50.820;16.274;2023-05-07T11:36:05;11.55;;;7.90;;
36441;SDS011;64346;50.820;16.274;2023-05-07T11:38:35;11.77;;;7.68;;
36441;SDS011;64346;50.820;16.274;2023-05-07T11:41:03;12.07;;;7.80;;
36441;SDS011;64346;50.820;16.274;2023-05-07T11:43:31;11.45;;;7.47;;
36441;SDS011;64346;50.820;16.274;2023-05-07T11:46:11;11.77;;;7.85;;
36441;SDS011;64346;50.820;16.274;2023-05-07T11:48:41;13.88;;;8.57;;
36441;SDS011;64346;50.820;16.274;2023-05-07T11:51:10;14.45;;;8.15;;
36441;SDS011;64346;50.820;16.274;2023-05-07T11:53:38;12.07;;;7.63;;
36441;SDS011;64346;50.820;16.274;2023-05-07T11:56:07;11.07;;;7.07;;
36441;SDS011;64346;50.820;16.274;2023-05-07T11:58:35;11.57;;;7.15;;
36441;SDS011;64346;50.820;16.274;2023-05-07T12:01:02;10.73;;;6.65;;
36441;SDS011;64346;50.820;16.274;2023-05-07T12:03:30;11.10;;;7.07;;
36441;SDS011;64346;50.820;16.274;2023-05-07T12:06:02;11.52;;;6.65;;
36441;SDS011;64346;50.820;16.274;2023-05-07T12:08:35;14.07;;;7.03;;
36441;SDS011;64346;50.820;16.274;2023-05-07T12:11:06;10.73;;;6.53;;
36441;SDS011;64346;50.820;16.274;2023-05-07T12:13:35;12.60;;;8.20;;
36441;SDS011;64346;50.820;16.274;2023-05-07T12:16:02;14.02;;;8.15;;
36441;SDS011;64346;50.820;16.274;2023-05-07T12:18:32;13.88;;;8.70;;
36441;SDS011;64346;50.820;16.274;2023-05-07T12:21:00;13.80;;;9.00;;
36441;SDS011;64346;50.820;16.274;2023-05-07T12:23:30;12.50;;;8.95;;
36441;SDS011;64346;50.820;16.274;2023-05-07T12:25:57;12.63;;;8.68;;
36441;SDS011;64346;50.820;16.274;2023-05-07T12:28:26;11.40;;;8.15;;
36441;SDS011;64346;50.820;16.274;2023-05-07T12:30:56;12.90;;;8.35;;
36441;SDS011;64346;50.820;16.274;2023-05-07T12:33:24;12.68;;;8.98;;
36441;SDS011;64346;50.820;16.274;2023-05-07T12:35:55;11.80;;;8.05;;
36441;SDS011;64346;50.820;16.274;2023-05-07T12:38:25;12.55;;;8.48;;
36441;SDS011;64346;50.820;16.274;2023-05-07T12:40:55;11.07;;;7.90;;
36441;SDS011;64346;50.820;16.274;2023-05-07T12:43:24;11.93;;;8.05;;
36441;SDS011;64346;50.820;16.274;2023-05-07T12:45:55;11.93;;;7.47;;
36441;SDS011;64346;50.820;16.274;2023-05-07T12:48:24;12.60;;;7.78;;
36441;SDS011;64346;50.820;16.274;2023-05-07T12:50:54;11.90;;;8.13;;
36441;SDS011;64346;50.820;16.274;2023-05-07T12:53:26;11.85;;;7.57;;
36441;SDS011;64346;50.820;16.274;2023-05-07T12:55:54;11.60;;;7.45;;
36441;SDS011;64346;50.820;16.274;2023-05-07T12:58:24;11.30;;;6.97;;
36441;SDS011;64346;50.820;16.274;2023-05-07T13:00:56;11.43;;;6.37;;
36441;SDS011;64346;50.820;16.274;2023-05-07T13:03:30;10.50;;;6.93;;
36441;SDS011;64346;50.820;16.274;2023-05-07T13:06:00;11.40;;;6.68;;
36441;SDS011;64346;50.820;16.274;2023-05-07T13:08:33;10.25;;;6.63;;
36441;SDS011;64346;50.820;16.274;2023-05-07T13:11:02;10.00;;;6.53;;
36441;SDS011;64346;50.820;16.274;2023-05-07T13:13:34;11.18;;;6.65;;
36441;SDS011;64346;50.820;16.274;2023-05-07T13:16:04;9.27;;;6.00;;
36441;SDS011;64346;50.820;16.274;2023-05-07T13:18:35;9.70;;;6.05;;
36441;SDS011;64346;50.820;16.274;2023-05-07T13:21:04;10.75;;;6.95;;
36441;SDS011;64346;50.820;16.274;2023-05-07T13:23:34;11.02;;;7.20;;
36441;SDS011;64346;50.820;16.274;2023-05-07T13:26:01;11.98;;;6.47;;
36441;SDS011;64346;50.820;16.274;2023-05-07T13:28:37;10.82;;;6.70;;
36441;SDS011;64346;50.820;16.274;2023-05-07T13:31:04;35.47;;;20.63;;
36441;SDS011;64346;50.820;16.274;2023-05-07T13:33:31;10.43;;;6.57;;
36441;SDS011;64346;50.820;16.274;2023-05-07T13:35:58;11.35;;;6.72;;
36441;SDS011;64346;50.820;16.274;2023-05-07T13:38:28;9.85;;;6.03;;
36441;SDS011;64346;50.820;16.274;2023-05-07T13:40:58;11.95;;;7.38;;
36441;SDS011;64346;50.820;16.274;2023-05-07T13:43:26;11.25;;;7.10;;
36441;SDS011;64346;50.820;16.274;2023-05-07T13:45:53;12.18;;;7.50;;
36441;SDS011;64346;50.820;16.274;2023-05-07T13:48:23;9.95;;;6.10;;
36441;SDS011;64346;50.820;16.274;2023-05-07T13:50:52;11.00;;;6.60;;
36441;SDS011;64346;50.820;16.274;2023-05-07T13:53:19;14.02;;;6.60;;
36441;SDS011;64346;50.820;16.274;2023-05-07T13:55:49;11.50;;;5.88;;
36441;SDS011;64346;50.820;16.274;2023-05-07T13:58:19;10.18;;;6.60;;
36441;SDS011;64346;50.820;16.274;2023-05-07T14:00:46;10.65;;;6.40;;
36441;SDS011;64346;50.820;16.274;2023-05-07T14:03:13;11.27;;;6.68;;
36441;SDS011;64346;50.820;16.274;2023-05-07T14:05:41;10.07;;;6.20;;
36441;SDS011;64346;50.820;16.274;2023-05-07T14:08:08;10.93;;;6.72;;
36441;SDS011;64346;50.820;16.274;2023-05-07T14:10:37;10.77;;;7.05;;
36441;SDS011;64346;50.820;16.274;2023-05-07T14:13:05;14.77;;;8.20;;
36441;SDS011;64346;50.820;16.274;2023-05-07T14:15:32;12.02;;;8.07;;
36441;SDS011;64346;50.820;16.274;2023-05-07T14:18:17;10.73;;;6.70;;
36441;SDS011;64346;50.820;16.274;2023-05-07T14:20:44;10.82;;;6.93;;
36441;SDS011;64346;50.820;16.274;2023-05-07T14:23:12;10.85;;;6.88;;
36441;SDS011;64346;50.820;16.274;2023-05-07T14:25:39;11.57;;;7.20;;
36441;SDS011;64346;50.820;16.274;2023-05-07T14:28:06;11.80;;;7.15;;
36441;SDS011;64346;50.820;16.274;2023-05-07T14:30:36;11.77;;;6.82;;
36441;SDS011;64346;50.820;16.274;2023-05-07T14:33:03;12.48;;;7.53;;
36441;SDS011;64346;50.820;16.274;2023-05-07T14:35:33;11.07;;;7.28;;
36441;SDS011;64346;50.820;16.274;2023-05-07T14:38:01;10.93;;;7.10;;
36441;SDS011;64346;50.820;16.274;2023-05-07T14:40:28;11.10;;;6.55;;
36441;SDS011;64346;50.820;16.274;2023-05-07T14:42:55;12.10;;;6.70;;
36441;SDS011;64346;50.820;16.274;2023-05-07T14:45:22;10.60;;;6.63;;
36441;SDS011;64346;50.820;16.274;2023-05-07T14:47:52;10.80;;;6.22;;
36441;SDS011;64346;50.820;16.274;2023-05-07T14:50:22;9.77;;;5.82;;
36441;SDS011;64346;50.820;16.274;2023-05-07T14:52:49;10.75;;;6.10;;
36441;SDS011;64346;50.820;16.274;2023-05-07T14:55:18;11.40;;;6.32;;
36441;SDS011;64346;50.820;16.274;2023-05-07T14:57:48;10.25;;;6.20;;